EGPN/DND METAR and TAF weather

Enter ICAO airport designator
Station Type Date Time Source
EGPN METAR 2018/04/23 11:20 UTC NOAA

EGPN 231120Z 26019KT 9999 VCSH FEW030 SCT042 12/07 Q1006


Station Type Date Time Source
EGPN Decoded METAR 2018/04/23 11:20 UTC NOAA

Dundee / Riverside, United Kingdom (EGPN) 56-27N 003-01W
Apr 23, 2018 - 07:20 AM EDT / 2018.04.23 1120 UTC
Wind: from the W (260 degrees) at 22 MPH (19 KT):0
Visibility: greater than 7 mile(s):0
Sky conditions: partly cloudy
Weather: showers in the vicinity
Temperature: 53 F (12 C)
Dew Point: 44 F (7 C)
Relative Humidity: 71%
Pressure (altimeter): 29.71 in. Hg (1006 hPa)
ob: EGPN 231120Z 26019KT 9999 VCSH FEW030 SCT042 12/07 Q1006
cycle: 11

Station Type Date Time Source
EGPN TAF UTC NOAA

Error!


Example: see airport list